createdAt,value
2023-02-27T00:00:35.557Z,1.00
2023-02-27T00:03:47.578Z,1.55
2023-02-27T00:06:50.531Z,1.65
2023-02-27T00:10:03.102Z,0.85
2023-02-27T00:13:17.608Z,1.17
2023-02-27T00:16:30.644Z,1.00
2023-02-27T00:19:34.607Z,1.10
2023-02-27T00:22:48.629Z,1.00
2023-02-27T00:26:00.636Z,1.00
2023-02-27T00:29:25.675Z,1.00
2023-02-27T00:32:25.810Z,1.10
2023-02-27T00:35:49.748Z,1.27
2023-02-27T00:38:49.640Z,1.10
2023-02-27T00:42:01.749Z,1.23
2023-02-27T00:45:14.720Z,1.30
2023-02-27T00:48:26.753Z,1.30
2023-02-27T00:51:27.133Z,1.20
2023-02-27T00:54:39.743Z,1.10
2023-02-27T00:57:38.834Z,0.87
2023-02-27T01:01:04.834Z,1.17
2023-02-27T01:04:04.765Z,1.05
2023-02-27T01:07:31.904Z,0.93
2023-02-27T01:10:49.849Z,1.60
2023-02-27T01:14:01.812Z,1.87
2023-02-27T01:17:15.761Z,1.07
2023-02-27T01:20:39.818Z,1.17
2023-02-27T01:23:54.782Z,1.30
2023-02-27T01:27:06.863Z,1.30
2023-02-27T01:30:09.814Z,0.93
2023-02-27T01:33:35.898Z,1.53
2023-02-27T01:36:35.855Z,1.25
2023-02-27T01:39:49.882Z,1.17
2023-02-27T01:42:49.894Z,1.30
2023-02-27T01:46:13.941Z,1.13
2023-02-27T01:49:27.894Z,1.00
2023-02-27T01:52:52.905Z,1.00
2023-02-27T01:56:04.933Z,1.03
2023-02-27T01:59:28.979Z,1.50
2023-02-27T02:02:44.024Z,1.15
2023-02-27T02:06:10.970Z,1.40
2023-02-27T02:09:23.015Z,0.90
2023-02-27T02:12:47.070Z,1.10
2023-02-27T02:16:14.982Z,1.17
2023-02-27T02:19:27.026Z,1.27
2023-02-27T02:22:58.034Z,1.20
2023-02-27T02:26:16.000Z,1.35
2023-02-27T02:30:04.072Z,1.07
2023-02-27T02:33:23.008Z,0.95
2023-02-27T02:37:08.052Z,1.10
2023-02-27T02:40:29.087Z,1.20
2023-02-27T02:43:53.074Z,1.03
2023-02-27T02:47:05.078Z,1.10
2023-02-27T02:50:31.078Z,0.70
2023-02-27T02:53:46.085Z,1.00
2023-02-27T02:57:12.163Z,1.20
2023-02-27T03:00:37.133Z,1.13
2023-02-27T03:04:01.136Z,0.90
2023-02-27T03:07:25.146Z,1.40
2023-02-27T03:10:50.136Z,0.93
2023-02-27T03:14:04.146Z,1.00
2023-02-27T03:17:32.190Z,0.80
2023-02-27T03:20:47.217Z,1.20
2023-02-27T03:24:11.246Z,1.00
2023-02-27T03:27:39.224Z,1.03
2023-02-27T03:31:08.324Z,1.93
2023-02-27T03:34:31.291Z,1.20
2023-02-27T03:37:55.227Z,1.17
2023-02-27T03:41:19.236Z,1.20
2023-02-27T03:44:45.291Z,1.00
2023-02-27T03:48:11.265Z,0.93
2023-02-27T03:51:35.251Z,1.10
2023-02-27T03:54:59.341Z,0.90
2023-02-27T03:58:26.272Z,1.30
2023-02-27T04:01:26.645Z,1.15
2023-02-27T04:04:52.261Z,1.10
2023-02-27T04:08:19.258Z,1.20
2023-02-27T04:11:55.375Z,1.17
2023-02-27T04:15:10.369Z,1.03
2023-02-27T04:18:35.420Z,1.20
2023-02-27T04:21:49.431Z,1.20
2023-02-27T04:25:14.350Z,0.85
2023-02-27T04:28:28.392Z,1.13
2023-02-27T04:31:52.509Z,0.97
2023-02-27T04:35:04.422Z,1.30
2023-02-27T04:38:30.405Z,1.17
2023-02-27T04:41:43.459Z,0.60
2023-02-27T04:45:08.428Z,1.10
2023-02-27T04:48:20.532Z,1.10
2023-02-27T04:51:45.419Z,1.10
2023-02-27T04:54:58.465Z,1.40
2023-02-27T04:58:40.463Z,1.07
2023-02-27T05:01:53.546Z,0.50
2023-02-27T05:05:17.493Z,1.30
2023-02-27T05:08:33.531Z,0.70
2023-02-27T05:12:00.522Z,1.20
2023-02-27T05:15:13.558Z,1.07
2023-02-27T05:18:43.065Z,1.13
2023-02-27T05:21:55.587Z,0.90
2023-02-27T05:25:22.543Z,0.80
2023-02-27T05:28:39.628Z,0.90
2023-02-27T05:32:05.672Z,1.00
2023-02-27T05:35:17.656Z,1.40
2023-02-27T05:38:41.605Z,1.10
2023-02-27T05:41:53.635Z,1.00
2023-02-27T05:45:22.656Z,1.10
2023-02-27T05:48:37.656Z,1.27
2023-02-27T05:52:01.652Z,1.00
2023-02-27T05:55:13.712Z,1.20
2023-02-27T05:58:40.692Z,1.23
2023-02-27T06:01:53.735Z,1.00
2023-02-27T06:05:17.692Z,1.13
2023-02-27T06:08:17.744Z,1.10
2023-02-27T06:11:29.769Z,0.90
2023-02-27T06:14:29.760Z,1.30
2023-02-27T06:17:55.674Z,1.10
2023-02-27T06:21:07.708Z,1.10
2023-02-27T06:24:22.133Z,1.17
2023-02-27T06:27:32.793Z,1.10
2023-02-27T06:30:46.578Z,1.40
2023-02-27T06:34:00.741Z,1.10
2023-02-27T06:37:12.796Z,0.97
2023-02-27T06:40:12.771Z,1.43
2023-02-27T06:43:24.831Z,1.20
2023-02-27T06:46:25.014Z,1.33
2023-02-27T06:49:50.784Z,1.23
2023-02-27T06:53:02.869Z,1.20
2023-02-27T06:56:14.903Z,1.10
2023-02-27T06:59:14.880Z,1.20
2023-02-27T07:02:38.942Z,1.40
2023-02-27T07:05:55.896Z,1.40
2023-02-27T07:09:08.909Z,1.60
2023-02-27T07:12:08.943Z,1.20
2023-02-27T07:15:32.999Z,1.03
2023-02-27T07:18:44.972Z,1.00
2023-02-27T07:22:13.869Z,0.90
2023-02-27T07:25:29.000Z,1.20
2023-02-27T07:28:41.001Z,1.53
2023-02-27T07:31:40.911Z,1.23
2023-02-27T07:34:53.947Z,2.30
2023-02-27T07:38:07.951Z,1.10
2023-02-27T07:41:30.255Z,1.93
2023-02-27T07:44:36.052Z,1.30
2023-02-27T07:47:59.970Z,1.70
2023-02-27T07:51:06.086Z,1.80
2023-02-27T07:54:31.324Z,1.63
2023-02-27T07:57:43.044Z,2.00
2023-02-27T08:01:08.118Z,1.83
2023-02-27T08:04:21.069Z,2.07
2023-02-27T08:07:21.084Z,1.70
2023-02-27T08:10:48.124Z,1.47
2023-02-27T08:14:00.057Z,2.10
2023-02-27T08:17:13.127Z,2.13
2023-02-27T08:20:18.099Z,2.43
2023-02-27T08:23:33.121Z,2.23
2023-02-27T08:26:47.110Z,1.45
2023-02-27T08:29:59.227Z,2.10
2023-02-27T08:32:59.102Z,2.17
2023-02-27T08:36:11.151Z,2.10
2023-02-27T08:39:11.178Z,2.50
2023-02-27T08:42:37.149Z,2.40
2023-02-27T08:45:37.243Z,2.00
2023-02-27T08:48:49.252Z,1.85
2023-02-27T08:51:49.299Z,1.60
2023-02-27T08:55:01.208Z,2.20
2023-02-27T08:58:14.252Z,2.40
2023-02-27T09:01:29.542Z,1.95
2023-02-27T09:04:41.212Z,2.13
2023-02-27T09:07:53.309Z,2.05
2023-02-27T09:11:05.230Z,2.00
2023-02-27T09:14:33.320Z,2.20
2023-02-27T09:17:33.514Z,2.10
2023-02-27T09:20:49.335Z,1.77
2023-02-27T09:23:50.325Z,1.87
2023-02-27T09:27:15.294Z,1.60
2023-02-27T09:30:29.337Z,2.00
2023-02-27T09:33:41.357Z,1.83
2023-02-27T09:36:41.350Z,1.43
2023-02-27T09:39:53.487Z,2.30
2023-02-27T09:43:05.371Z,2.50
2023-02-27T09:46:37.374Z,2.10
2023-02-27T09:49:49.369Z,1.53
2023-02-27T09:53:01.401Z,1.70
2023-02-27T09:56:13.398Z,1.70
2023-02-27T09:59:37.514Z,1.60
2023-02-27T10:02:53.447Z,1.70
2023-02-27T10:06:22.466Z,1.87
2023-02-27T10:09:40.448Z,1.25
2023-02-27T10:13:09.483Z,1.50
2023-02-27T10:16:21.499Z,1.47
2023-02-27T10:19:47.431Z,1.40
2023-02-27T10:22:59.553Z,1.30
2023-02-27T10:26:24.493Z,1.47
2023-02-27T10:29:40.531Z,1.15
2023-02-27T10:33:06.552Z,1.83
2023-02-27T10:36:32.985Z,1.25
2023-02-27T10:39:45.559Z,2.00
2023-02-27T10:42:57.497Z,1.40
2023-02-27T10:46:09.616Z,1.47
2023-02-27T10:49:22.621Z,1.10
2023-02-27T10:52:48.580Z,1.40
2023-02-27T10:56:00.711Z,1.25
2023-02-27T10:59:27.702Z,1.35
2023-02-27T11:02:44.666Z,1.20
2023-02-27T11:06:09.661Z,1.20
2023-02-27T11:09:40.669Z,1.40
2023-02-27T11:13:08.667Z,0.83
2023-02-27T11:16:27.694Z,0.85
2023-02-27T11:19:57.634Z,0.70
2023-02-27T11:23:09.708Z,0.75
2023-02-27T11:26:38.776Z,0.90
2023-02-27T11:29:50.708Z,1.00
2023-02-27T11:33:19.739Z,0.83
2023-02-27T11:36:32.724Z,2.15
2023-02-27T11:39:58.698Z,0.93
2023-02-27T11:43:11.743Z,0.80
2023-02-27T11:46:47.716Z,0.70
2023-02-27T11:49:50.717Z,1.00
2023-02-27T11:53:18.818Z,0.77
2023-02-27T11:56:36.028Z,0.87
2023-02-27T12:00:02.791Z,1.00
2023-02-27T12:03:16.799Z,0.90
2023-02-27T12:06:40.838Z,0.60
2023-02-27T12:09:59.894Z,1.00
2023-02-27T12:13:23.894Z,1.13
2023-02-27T12:16:37.854Z,0.87
2023-02-27T12:20:02.872Z,1.20
2023-02-27T12:23:15.914Z,1.00
2023-02-27T12:26:40.936Z,0.80
2023-02-27T12:29:52.920Z,0.80
2023-02-27T12:33:18.864Z,0.90
2023-02-27T12:36:32.934Z,0.80
2023-02-27T12:39:56.934Z,1.03
2023-02-27T12:43:11.894Z,0.93
2023-02-27T12:46:50.989Z,0.60
2023-02-27T12:50:05.978Z,1.20
2023-02-27T12:53:33.964Z,0.80
2023-02-27T12:56:45.984Z,0.60
2023-02-27T13:00:19.923Z,1.00
2023-02-27T13:03:34.080Z,1.00
2023-02-27T13:07:03.000Z,0.87
2023-02-27T13:10:14.998Z,0.90
2023-02-27T13:13:43.014Z,0.75
2023-02-27T13:16:55.065Z,0.80
2023-02-27T13:20:23.036Z,0.90
2023-02-27T13:23:37.030Z,1.00
2023-02-27T13:27:04.020Z,0.75
2023-02-27T13:30:17.099Z,0.70
2023-02-27T13:33:42.130Z,0.87
2023-02-27T13:36:55.106Z,0.93
2023-02-27T13:40:21.106Z,0.93
2023-02-27T13:43:51.353Z,0.80
2023-02-27T13:46:55.151Z,0.77
2023-02-27T13:49:58.144Z,0.70
2023-02-27T13:53:22.180Z,0.73
2023-02-27T13:56:45.132Z,0.80
2023-02-27T14:00:09.219Z,0.60
2023-02-27T14:03:21.283Z,0.80
2023-02-27T14:06:46.146Z,0.75
2023-02-27T14:09:58.189Z,0.90
2023-02-27T14:13:24.155Z,1.10
2023-02-27T14:16:39.173Z,0.73
2023-02-27T14:20:12.340Z,0.47
2023-02-27T14:23:27.386Z,0.83
2023-02-27T14:26:51.374Z,0.70
2023-02-27T14:30:05.231Z,0.60
2023-02-27T14:33:40.207Z,0.83
2023-02-27T14:36:44.239Z,0.50
2023-02-27T14:40:08.470Z,0.50
2023-02-27T14:43:21.274Z,0.50
2023-02-27T14:46:50.330Z,0.65
2023-02-27T14:50:02.329Z,0.55
2023-02-27T14:53:26.382Z,1.10
2023-02-27T14:56:42.377Z,0.80
2023-02-27T15:00:06.380Z,1.00
2023-02-27T15:03:20.383Z,0.70
2023-02-27T15:06:48.395Z,0.65
2023-02-27T15:10:01.657Z,0.65
2023-02-27T15:13:25.354Z,0.40
2023-02-27T15:16:46.470Z,1.13
2023-02-27T15:20:12.321Z,0.67
2023-02-27T15:23:24.381Z,0.80
2023-02-27T15:26:48.413Z,0.65
2023-02-27T15:30:00.528Z,0.80
2023-02-27T15:33:24.420Z,0.60
2023-02-27T15:36:42.461Z,0.70
2023-02-27T15:40:06.518Z,0.60
2023-02-27T15:43:18.461Z,0.95
2023-02-27T15:46:30.523Z,0.57
2023-02-27T15:49:46.526Z,0.55
2023-02-27T15:53:15.529Z,0.67
2023-02-27T15:56:27.617Z,0.60
2023-02-27T15:59:51.540Z,0.60
2023-02-27T16:03:15.499Z,0.77
2023-02-27T16:06:42.620Z,0.70
2023-02-27T16:09:57.503Z,0.80
2023-02-27T16:13:12.523Z,0.70
2023-02-27T16:16:24.562Z,0.90
2023-02-27T16:19:48.622Z,0.70
2023-02-27T16:22:48.582Z,0.67
2023-02-27T16:26:26.813Z,0.70
2023-02-27T16:29:41.623Z,0.70
2023-02-27T16:33:05.604Z,0.70
2023-02-27T16:36:17.594Z,0.77
2023-02-27T16:39:29.656Z,0.87
2023-02-27T16:42:42.741Z,1.00
2023-02-27T16:46:09.714Z,0.65
2023-02-27T16:49:21.664Z,0.97
2023-02-27T16:52:34.669Z,0.70
2023-02-27T16:55:34.764Z,0.70
2023-02-27T16:58:59.690Z,1.00
2023-02-27T17:01:59.712Z,3.17
2023-02-27T17:05:11.798Z,0.90
2023-02-27T17:08:11.762Z,0.77
2023-02-27T17:11:36.721Z,0.50
2023-02-27T17:14:50.747Z,0.90
2023-02-27T17:18:02.732Z,0.67
2023-02-27T17:21:03.822Z,0.90
2023-02-27T17:24:15.741Z,0.83
2023-02-27T17:27:15.822Z,1.20
2023-02-27T17:30:41.853Z,1.20
2023-02-27T17:33:55.845Z,0.70
2023-02-27T17:37:07.894Z,1.30
2023-02-27T17:40:07.770Z,1.10
2023-02-27T17:43:19.775Z,1.97
2023-02-27T17:46:34.006Z,1.50
2023-02-27T17:49:47.828Z,1.23
2023-02-27T17:52:59.949Z,1.00
2023-02-27T17:56:23.889Z,1.30
2023-02-27T17:59:23.857Z,1.60
2023-02-27T18:02:50.023Z,1.10
2023-02-27T18:06:14.929Z,0.90
2023-02-27T18:09:14.905Z,0.80
2023-02-27T18:12:26.880Z,0.90
2023-02-27T18:15:38.934Z,1.30
2023-02-27T18:19:04.006Z,1.20
2023-02-27T18:22:03.926Z,0.80
2023-02-27T18:25:27.972Z,1.17
2023-02-27T18:28:27.963Z,1.45
2023-02-27T18:31:52.084Z,1.83
2023-02-27T18:35:06.961Z,1.20
2023-02-27T18:38:19.000Z,1.60
2023-02-27T18:41:33.976Z,0.97
2023-02-27T18:44:58.033Z,1.20
2023-02-27T18:48:10.047Z,0.93
2023-02-27T18:51:38.043Z,0.80
2023-02-27T18:54:38.082Z,1.20
2023-02-27T18:57:53.121Z,1.00
2023-02-27T19:00:56.084Z,1.70
2023-02-27T19:04:20.098Z,0.93
2023-02-27T19:07:34.137Z,0.80
2023-02-27T19:10:46.136Z,0.93
2023-02-27T19:13:46.153Z,1.10
2023-02-27T19:16:59.163Z,0.97
2023-02-27T19:20:11.137Z,1.13
2023-02-27T19:23:40.166Z,0.90
2023-02-27T19:26:57.155Z,0.90
2023-02-27T19:30:10.171Z,1.80
2023-02-27T19:33:13.243Z,1.13
2023-02-27T19:36:43.199Z,1.07
2023-02-27T19:39:56.273Z,1.70
2023-02-27T19:43:08.226Z,1.17
2023-02-27T19:46:20.346Z,1.20
2023-02-27T19:49:44.216Z,2.30
2023-02-27T19:52:59.277Z,1.40
2023-02-27T19:56:26.643Z,1.10
2023-02-27T19:59:26.230Z,1.15
2023-02-27T20:02:39.293Z,1.20
2023-02-27T20:05:56.120Z,1.30
2023-02-27T20:09:02.343Z,1.25
2023-02-27T20:12:31.674Z,1.23
2023-02-27T20:15:32.350Z,1.37
2023-02-27T20:18:59.315Z,1.53
2023-02-27T20:22:11.275Z,1.30
2023-02-27T20:25:36.372Z,1.10
2023-02-27T20:28:50.368Z,1.25
2023-02-27T20:32:17.429Z,1.57
2023-02-27T20:35:29.428Z,1.40
2023-02-27T20:38:56.381Z,1.40
2023-02-27T20:42:08.424Z,1.40
2023-02-27T20:45:34.357Z,1.17
2023-02-27T20:48:46.375Z,1.20
2023-02-27T20:51:58.421Z,1.50
2023-02-27T20:54:58.469Z,1.37
2023-02-27T20:58:10.409Z,1.30
2023-02-27T21:01:24.502Z,1.40
2023-02-27T21:04:57.674Z,1.47
2023-02-27T21:08:09.470Z,1.50
2023-02-27T21:11:33.548Z,1.60
2023-02-27T21:14:33.445Z,1.35
2023-02-27T21:17:59.610Z,1.25
2023-02-27T21:21:02.454Z,1.40
2023-02-27T21:24:27.589Z,1.40
2023-02-27T21:27:27.464Z,1.50
2023-02-27T21:30:52.554Z,1.60
2023-02-27T21:34:05.612Z,2.50
2023-02-27T21:37:17.563Z,2.23
2023-02-27T21:40:18.605Z,2.00
2023-02-27T21:43:30.618Z,2.00
2023-02-27T21:46:42.595Z,1.00
2023-02-27T21:50:07.650Z,2.33
2023-02-27T21:53:07.552Z,2.80
2023-02-27T21:56:31.671Z,2.10
2023-02-27T21:59:34.630Z,1.63
2023-02-27T22:03:02.750Z,2.30
2023-02-27T22:06:28.621Z,1.90
2023-02-27T22:09:34.742Z,1.70
2023-02-27T22:12:49.661Z,1.80
2023-02-27T22:15:49.697Z,1.70
2023-02-27T22:19:13.713Z,2.07
2023-02-27T22:22:27.671Z,1.70
2023-02-27T22:25:39.698Z,1.80
2023-02-27T22:28:39.777Z,1.50
2023-02-27T22:31:54.842Z,1.73
2023-02-27T22:34:54.695Z,1.60
2023-02-27T22:38:20.714Z,1.70
2023-02-27T22:41:32.799Z,1.90
2023-02-27T22:44:45.751Z,1.75
2023-02-27T22:47:45.734Z,1.73
2023-02-27T22:50:57.846Z,2.30
2023-02-27T22:54:11.754Z,2.30
2023-02-27T22:57:23.754Z,1.73
2023-02-27T23:00:24.761Z,2.13
2023-02-27T23:03:37.840Z,1.80
2023-02-27T23:06:52.474Z,2.40
2023-02-27T23:10:15.809Z,1.20
2023-02-27T23:13:15.834Z,2.43
2023-02-27T23:16:27.960Z,2.40
2023-02-27T23:19:39.924Z,2.17
2023-02-27T23:22:51.931Z,1.65
2023-02-27T23:26:05.923Z,1.85
2023-02-27T23:29:29.982Z,2.00
2023-02-27T23:32:30.005Z,2.17
2023-02-27T23:35:53.938Z,1.90
2023-02-27T23:39:05.893Z,1.70
2023-02-27T23:42:36.499Z,2.05
2023-02-27T23:45:36.936Z,1.60
2023-02-27T23:49:00.995Z,1.80
2023-02-27T23:52:00.950Z,2.23
2023-02-27T23:55:12.948Z,1.67
2023-02-27T23:58:26.981Z,1.70
